Portada
METAR-TAF:

METAR-TAF

Aeroports :

Xi'an, Xina

latitud: 34-26N, longitud: 108-45E, altitud: 479 m

Observació

L'informe es va fer fa 32 minuts, a les 15:00 UTC
Vent 2 kt del Nord/Nord-Oest
Temperatura 2°C
Humitat 69%
Pressió 1022 hPa
Visibilitat: 3500 m
calitja

METAR: ZLXY 231500Z 34001MPS 3500 HZ NSC 02/M03 Q1022 NOSIG

Hora: 23:32 (15:32 UTC)

Pronòstic

L'informe es va fer fa 6 hores i 13 minuts, a les 09:19 UTC
Pronòstic vàlid del 23 a les 12 UTC al 24 a les 12 UTC
Vent 6 kt del Est/Nord-Est
Visibilitat: 3000 m
boirina
Evolucionant progressivament
l' 23 a les 17 UTC al 23 a les 18 UTC
Visibilitat: 2400 m
boirina
Evolucionant progressivament
l' 24 a les 01 UTC al 24 a les 02 UTC
Visibilitat: 3000 m
calitja

TAF: ZLXY 230919Z 2312/2412 06003MPS 3000 BR NSC TX13/2407Z TNM02/22Z BECMG 2317/2318 2400 BR BECMG 2401/2402 3000 HZ

Observacions i pronòstics meteorològics de més de 4000 aeroports (METAR i TAF).

Les estacions disponibles són els punts grocs i vermells al mapa.

Posi el ratolí al punt desitjat per veure el nom de l'estació.

Feu clic per veure les observacions i els pronòstics meteorològics.

Per canviar el mapa: feu clic els botons verds amb una creu de color negre per apropar; al botó verd amb un guió per allunyar la imatge; o en les fletxes verdes per a mapes adjacents.


METAR-TAF: